Time;durP1;ratioP1;P1;durP2;ratioP2;P2;SDS_P1;SDS_P2;PMS_P1;PMS_P2;Temp;Humidity;BMP_temperature;BMP_pressure;BME280_temperature;BME280_humidity;BME280_pressure;Samples;Min_cycle;Max_cycle;Signal;HPM_P1;HPM_P2
2021/01/26 00:00:31;;;;;;;11.10;5.83;;;;;;;6.76;88.28;97812.03;1703733;84;21042;-60
2021/01/26 00:02:59;;;;;;;11.18;6.10;;;;;;;6.76;88.29;97807.13;1701852;84;21810;-62
2021/01/26 00:05:26;;;;;;;10.13;5.80;;;;;;;6.73;88.19;97802.98;1703707;83;21079;-60
2021/01/26 00:07:54;;;;;;;10.43;5.90;;;;;;;6.73;88.10;97798.08;1703827;83;21028;-60
2021/01/26 00:10:21;;;;;;;10.58;6.22;;;;;;;6.71;88.09;97793.40;1703303;84;21349;-59
2021/01/26 00:12:48;;;;;;;11.78;6.47;;;;;;;6.70;88.02;97797.19;1703627;84;21715;-61
2021/01/26 00:15:16;;;;;;;14.07;6.67;;;;;;;6.67;88.03;97802.03;1703845;84;21250;-60
2021/01/26 00:17:45;;;;;;;13.18;6.50;;;;;;;6.66;88.01;97792.22;1703890;84;21076;-59
2021/01/26 00:20:15;;;;;;;15.30;6.70;;;;;;;6.66;88.01;97789.50;1702955;83;21043;-61
2021/01/26 00:22:42;;;;;;;15.88;7.20;;;;;;;6.65;87.96;97790.56;1703659;83;21828;-60
2021/01/26 00:25:16;;;;;;;12.18;6.45;;;;;;;6.65;87.98;97789.73;1703608;84;21303;-59
2021/01/26 00:27:43;;;;;;;14.10;6.22;;;;;;;6.63;87.96;97786.42;1703681;84;21368;-61
2021/01/26 00:30:19;;;;;;;11.85;6.95;;;;;;;6.60;87.97;97787.72;1703725;84;21358;-61
2021/01/26 00:32:46;;;;;;;12.85;6.58;;;;;;;6.61;87.94;97790.73;1695681;83;21086;-61
2021/01/26 00:35:16;;;;;;;12.05;6.92;;;;;;;6.58;87.93;97787.12;1673612;84;21433;-60
2021/01/26 00:37:43;;;;;;;11.80;5.92;;;;;;;6.57;88.04;97788.73;1673279;85;21359;-60
2021/01/26 00:40:12;;;;;;;12.98;6.45;;;;;;;6.55;88.02;97787.60;1673337;84;21926;-60
2021/01/26 00:42:40;;;;;;;11.33;5.95;;;;;;;6.52;88.00;97788.61;1673363;85;21826;-60
2021/01/26 00:45:09;;;;;;;13.32;5.97;;;;;;;6.49;87.99;97779.00;1673376;85;21200;-60
2021/01/26 00:47:37;;;;;;;11.97;5.35;;;;;;;6.47;88.02;97781.13;1673592;84;21396;-61
2021/01/26 00:50:06;;;;;;;14.58;5.67;;;;;;;6.45;88.07;97771.02;1653169;84;21076;-60
2021/01/26 00:52:35;;;;;;;12.85;5.78;;;;;;;6.43;88.16;97764.98;1691691;84;21288;-59
2021/01/26 00:55:06;;;;;;;14.65;6.17;;;;;;;6.42;88.18;97766.05;1688839;83;21173;-59
2021/01/26 00:57:34;;;;;;;8.40;4.78;;;;;;;6.42;88.20;97762.50;1667700;86;21090;-60
2021/01/26 01:00:08;;;;;;;7.92;4.95;;;;;;;6.41;88.20;97758.95;1691820;83;21300;-60
2021/01/26 01:02:35;;;;;;;9.63;5.10;;;;;;;6.38;88.23;97762.14;1667078;86;21054;-59
2021/01/26 01:05:06;;;;;;;8.53;4.67;;;;;;;6.37;88.24;97776.80;1691673;84;21265;-61
2021/01/26 01:07:33;;;;;;;7.05;4.97;;;;;;;6.35;88.28;97785.72;1691787;84;21262;-61
2021/01/26 01:10:01;;;;;;;10.53;5.20;;;;;;;6.34;88.32;97786.26;1690658;83;21320;-60
2021/01/26 01:12:29;;;;;;;9.98;5.35;;;;;;;6.31;88.33;97784.54;1705125;84;21071;-60
2021/01/26 01:14:56;;;;;;;8.15;4.80;;;;;;;6.28;88.43;97785.01;1727264;83;21899;-60
2021/01/26 01:17:24;;;;;;;3.92;2.25;;;;;;;6.25;88.46;97822.17;1727403;83;21379;-60
2021/01/26 01:19:51;;;;;;;2.72;1.65;;;;;;;6.21;88.26;97825.89;1727337;83;21066;-61
2021/01/26 01:22:19;;;;;;;3.15;1.35;;;;;;;6.02;86.83;97833.82;1727429;83;21320;-60
2021/01/26 01:24:46;;;;;;;1.55;1.07;;;;;;;5.78;85.83;97840.16;1727221;83;22028;-60
2021/01/26 01:27:14;;;;;;;1.07;0.80;;;;;;;5.55;85.24;97844.42;1727451;83;21285;-60
2021/01/26 01:29:41;;;;;;;1.87;1.05;;;;;;;5.39;84.72;97850.48;1727183;83;21138;-59
2021/01/26 01:32:08;;;;;;;0.98;0.88;;;;;;;5.23;84.01;97852.44;1727456;83;21261;-61
2021/01/26 01:34:36;;;;;;;1.17;0.95;;;;;;;5.10;83.75;97866.95;1723828;83;21385;-60
2021/01/26 01:37:03;;;;;;;1.60;1.00;;;;;;;4.92;83.09;97870.47;1651606;85;21283;-60
2021/01/26 01:39:31;;;;;;;2.22;1.40;;;;;;;4.74;82.56;97882.12;1707023;83;21333;-60
2021/01/26 01:41:58;;;;;;;2.00;1.30;;;;;;;4.58;82.29;97886.74;1687790;84;21293;-60
2021/01/26 01:44:25;;;;;;;1.90;1.30;;;;;;;4.41;81.80;97887.78;1696214;83;21353;-59
2021/01/26 01:46:55;;;;;;;2.12;1.32;;;;;;;4.26;81.50;97904.87;1696038;84;21382;-60
2021/01/26 01:49:28;;;;;;;2.10;1.20;;;;;;;4.10;81.22;97910.82;1696004;83;21307;-61
2021/01/26 01:51:55;;;;;;;1.82;1.30;;;;;;;3.97;81.21;97922.56;1696191;84;21080;-60
2021/01/26 01:54:35;;;;;;;2.10;1.50;;;;;;;3.86;80.94;97942.17;1696060;83;21051;-61
2021/01/26 01:57:28;;;;;;;2.72;1.90;;;;;;;3.71;80.47;97949.21;1695843;84;21340;-60
2021/01/26 02:00:01;;;;;;;2.15;1.30;;;;;;;3.57;80.33;97945.41;1696098;83;21460;-60
2021/01/26 02:02:28;;;;;;;2.52;1.82;;;;;;;3.48;80.64;97965.95;1696052;84;21333;-59
2021/01/26 02:04:57;;;;;;;2.30;1.75;;;;;;;3.43;80.71;97972.52;1695980;83;21099;-60
2021/01/26 02:07:24;;;;;;;3.05;1.82;;;;;;;3.38;80.81;97975.02;1696271;83;21331;-61
2021/01/26 02:09:52;;;;;;;2.85;1.70;;;;;;;3.30;80.79;97985.23;1696256;83;21372;-60
2021/01/26 02:12:20;;;;;;;2.83;1.60;;;;;;;3.22;80.94;97986.27;1674814;84;21092;-61
2021/01/26 02:14:51;;;;;;;2.02;1.37;;;;;;;3.17;81.19;97987.41;1696142;84;21278;-60
2021/01/26 02:17:37;;;;;;;2.02;1.40;;;;;;;3.13;81.36;97996.47;1696227;83;21311;-60
2021/01/26 02:20:13;;;;;;;2.17;1.60;;;;;;;3.12;81.62;98006.14;1696263;84;21345;-61
2021/01/26 02:22:55;;;;;;;2.10;1.33;;;;;;;3.08;81.44;98023.83;1696414;83;21358;-61
2021/01/26 02:25:59;;;;;;;2.87;1.25;;;;;;;3.01;81.40;98020.30;1696225;84;21228;-60
2021/01/26 02:29:00;;;;;;;2.55;1.22;;;;;;;2.94;81.57;98024.88;1696262;83;21080;-61
2021/01/26 02:31:48;;;;;;;1.77;1.12;;;;;;;2.91;81.77;98042.86;1696170;83;21429;-60
2021/01/26 02:35:13;;;;;;;1.67;1.05;;;;;;;2.90;81.95;98056.07;1681383;82;21351;-60
2021/01/26 02:38:17;;;;;;;1.37;1.10;;;;;;;2.87;81.93;98061.38;1710250;83;21299;-60
2021/01/26 02:41:00;;;;;;;1.25;1.02;;;;;;;2.86;82.08;98060.53;1709667;84;21118;-61
2021/01/26 02:43:39;;;;;;;2.25;1.30;;;;;;;2.86;82.10;98071.36;1706228;84;21824;-61
2021/01/26 02:46:17;;;;;;;1.87;1.10;;;;;;;2.86;82.16;98081.34;1710273;84;21878;-59
2021/01/26 02:49:19;;;;;;;1.30;1.00;;;;;;;2.85;82.14;98075.61;1687494;84;21055;-61
2021/01/26 02:52:03;;;;;;;1.92;1.40;;;;;;;2.86;81.99;98092.16;1710378;84;21405;-61
2021/01/26 02:54:49;;;;;;;1.82;1.30;;;;;;;2.84;81.92;98098.29;1687646;84;21173;-62
2021/01/26 02:57:21;;;;;;;2.60;1.90;;;;;;;2.82;81.84;98104.42;1710304;84;21803;-62
2021/01/26 02:59:59;;;;;;;1.82;1.22;;;;;;;2.80;81.69;98113.25;1710222;84;21062;-60
2021/01/26 03:02:45;;;;;;;;;;;;;;;2.75;81.64;98117.09;1712852;83;21304;-60
2021/01/26 03:05:21;;;;;;;3.27;1.95;;;;;;;2.69;81.19;98130.91;1710213;83;20690;-59
2021/01/26 03:08:00;;;;;;;4.50;2.50;;;;;;;2.62;81.30;98121.94;1710590;84;21873;-59
2021/01/26 03:10:40;;;;;;;4.12;2.52;;;;;;;2.54;80.91;98119.38;1705276;84;21225;-61
2021/01/26 03:13:10;;;;;;;4.72;2.80;;;;;;;2.45;81.01;98118.73;1710357;84;21181;-60
2021/01/26 03:15:51;;;;;;;5.55;2.85;;;;;;;2.39;81.07;98113.30;1710543;84;21319;-60
2021/01/26 03:18:21;;;;;;;4.83;3.20;;;;;;;2.38;81.17;98123.79;1709730;84;21115;-60
2021/01/26 03:20:55;;;;;;;4.78;2.90;;;;;;;2.37;81.12;98122.95;1664127;84;21278;-61
2021/01/26 03:23:37;;;;;;;6.10;3.25;;;;;;;2.36;81.15;98132.61;1710474;84;21301;-60
2021/01/26 03:26:05;;;;;;;7.03;4.08;;;;;;;2.36;80.95;98108.30;1709912;83;21153;-59
2021/01/26 03:28:33;;;;;;;7.53;4.65;;;;;;;2.33;80.37;98135.20;1710430;83;21083;-60
2021/01/26 03:31:00;;;;;;;6.75;3.55;;;;;;;2.36;80.48;98138.02;1710317;84;21054;-60
2021/01/26 03:33:37;;;;;;;5.95;3.92;;;;;;;2.39;80.32;98161.94;1710474;84;21299;-61
2021/01/26 03:36:06;;;;;;;6.83;3.83;;;;;;;2.38;80.11;98148.11;1710403;84;21127;-60
2021/01/26 03:38:34;;;;;;;7.12;3.67;;;;;;;2.39;80.07;98152.48;1710531;84;21071;-60
2021/01/26 03:41:04;;;;;;;7.65;3.90;;;;;;;2.39;80.19;98149.77;1710420;84;21849;-61
2021/01/26 03:43:32;;;;;;;6.50;3.95;;;;;;;2.42;80.21;98156.97;1710404;84;21415;-61
2021/01/26 03:46:17;;;;;;;7.33;3.98;;;;;;;2.47;80.18;98153.66;1710474;83;21078;-63
2021/01/26 03:49:00;;;;;;;7.90;4.05;;;;;;;2.50;80.13;98160.02;1710520;84;21201;-60
2021/01/26 03:51:58;;;;;;;8.40;4.28;;;;;;;2.52;79.77;98176.34;1710385;84;21246;-59
2021/01/26 03:54:45;;;;;;;9.18;4.80;;;;;;;2.49;79.16;98165.94;1710366;84;21871;-60
2021/01/26 03:57:46;;;;;;;8.08;4.55;;;;;;;2.49;79.05;98167.28;1665897;84;21039;-60
2021/01/26 04:00:39;;;;;;;8.23;5.00;;;;;;;2.47;78.80;98164.47;1710189;84;21736;-61
2021/01/26 04:03:44;;;;;;;9.20;5.03;;;;;;;2.46;78.75;98175.80;1710322;84;21435;-61
2021/01/26 04:06:16;;;;;;;9.15;5.33;;;;;;;2.47;78.47;98184.73;1710364;84;21342;-60
2021/01/26 04:08:49;;;;;;;9.40;5.10;;;;;;;2.47;78.49;98190.14;1710285;83;21071;-62
2021/01/26 04:11:41;;;;;;;9.65;5.12;;;;;;;2.50;78.38;98188.39;1710460;84;21293;-61
2021/01/26 04:14:27;;;;;;;9.40;4.95;;;;;;;2.50;78.45;98188.39;1710456;84;21095;-61
2021/01/26 04:17:10;;;;;;;10.65;5.30;;;;;;;2.47;78.07;98186.09;1686088;84;21364;-60
2021/01/26 04:19:48;;;;;;;10.28;5.67;;;;;;;2.44;77.70;98187.32;1710427;84;21177;-61
2021/01/26 04:22:16;;;;;;;11.05;5.70;;;;;;;2.40;77.56;98183.34;1686590;84;21316;-60
2021/01/26 04:24:43;;;;;;;10.25;6.05;;;;;;;2.38;77.47;98202.15;1710292;84;21380;-60
2021/01/26 04:27:15;;;;;;;10.18;5.33;;;;;;;2.38;77.66;98202.98;1710391;84;21287;-61
2021/01/26 04:29:42;;;;;;;11.65;5.97;;;;;;;2.36;77.89;98229.89;1686610;84;21249;-60
2021/01/26 04:32:10;;;;;;;11.43;6.25;;;;;;;2.35;77.84;98221.46;1710305;83;21853;-60
2021/01/26 04:34:37;;;;;;;11.60;6.80;;;;;;;2.32;78.02;98226.75;1709629;83;21404;-61
2021/01/26 04:37:05;;;;;;;11.20;6.15;;;;;;;2.33;78.10;98219.47;1703692;84;21292;-59
2021/01/26 04:39:32;;;;;;;10.45;5.87;;;;;;;2.34;78.19;98228.73;1703741;84;21363;-61
2021/01/26 04:42:11;;;;;;;8.48;4.70;;;;;;;2.34;77.80;98237.36;1703735;83;21079;-61
2021/01/26 04:45:14;;;;;;;11.88;5.90;;;;;;;2.32;77.42;98238.07;1703782;84;21253;-60
2021/01/26 04:47:56;;;;;;;10.93;6.12;;;;;;;2.30;77.39;98237.44;1703329;84;21288;-60
2021/01/26 04:50:58;;;;;;;11.80;6.12;;;;;;;2.29;77.08;98247.41;1703775;84;21067;-60
2021/01/26 04:53:59;;;;;;;11.05;5.33;;;;;;;2.30;76.92;98253.13;1703862;84;21258;-61
2021/01/26 04:56:53;;;;;;;9.05;4.90;;;;;;;2.30;76.09;98249.59;1702994;83;21659;-59
2021/01/26 04:59:52;;;;;;;8.58;5.12;;;;;;;2.29;76.00;98275.77;1703849;83;21820;-61
2021/01/26 05:02:34;;;;;;;9.05;4.87;;;;;;;2.27;75.62;98265.67;1703722;84;21055;-62
2021/01/26 05:05:07;;;;;;;10.08;5.10;;;;;;;2.27;75.41;98276.48;1703818;83;21102;-61
2021/01/26 05:07:46;;;;;;;8.98;4.92;;;;;;;2.29;75.04;98293.84;1703849;84;21066;-61
2021/01/26 05:10:40;;;;;;;10.35;5.67;;;;;;;2.31;74.57;98298.55;1700440;84;21064;-60
2021/01/26 05:13:36;;;;;;;9.28;5.33;;;;;;;2.28;74.55;98286.78;1703724;84;21339;-62
2021/01/26 05:16:26;;;;;;;10.55;5.78;;;;;;;2.28;74.54;98301.63;1703762;84;21079;-61
2021/01/26 05:19:02;;;;;;;14.58;6.15;;;;;;;2.28;74.57;98302.47;1703724;83;21435;-60
2021/01/26 05:21:43;;;;;;;10.38;5.28;;;;;;;2.31;74.46;98298.03;1703707;84;21028;-63
2021/01/26 05:24:36;;;;;;;10.00;5.70;;;;;;;2.37;74.50;98312.10;1703690;84;22263;-61
2021/01/26 05:27:03;;;;;;;9.55;5.55;;;;;;;2.40;74.09;98337.89;1703726;84;21451;-62
2021/01/26 05:29:31;;;;;;;8.55;5.22;;;;;;;2.39;74.00;98326.77;1683750;84;21331;-60
2021/01/26 05:32:00;;;;;;;7.45;4.62;;;;;;;2.40;73.88;98311.70;1703697;84;21234;-60
2021/01/26 05:34:30;;;;;;;8.48;4.83;;;;;;;2.41;73.66;98335.52;1703780;83;21358;-61
2021/01/26 05:36:58;;;;;;;9.83;5.20;;;;;;;2.43;73.29;98344.25;1703625;84;21354;-60
2021/01/26 05:39:40;;;;;;;11.20;4.72;;;;;;;2.43;73.06;98334.28;1703806;84;21451;-60
2021/01/26 05:42:09;;;;;;;8.00;4.97;;;;;;;2.45;73.16;98344.89;1703340;83;21039;-61
2021/01/26 05:44:36;;;;;;;7.35;4.17;;;;;;;2.45;73.04;98351.13;1683963;84;21102;-60
2021/01/26 05:47:22;;;;;;;10.88;5.45;;;;;;;2.47;73.06;98347.72;1703639;84;21874;-59
2021/01/26 05:49:49;;;;;;;10.20;4.97;;;;;;;2.49;72.57;98352.41;1703573;84;21278;-60
2021/01/26 05:52:16;;;;;;;8.73;4.65;;;;;;;2.52;72.65;98352.53;1703677;84;21350;-61
2021/01/26 05:54:48;;;;;;;6.28;3.85;;;;;;;2.53;72.59;98354.20;1703855;84;21249;-61
2021/01/26 05:57:35;;;;;;;8.98;4.60;;;;;;;2.54;72.33;98354.52;1703533;84;21387;-61
2021/01/26 06:00:26;;;;;;;8.68;4.62;;;;;;;2.53;72.21;98360.45;1703315;84;21060;-60
2021/01/26 06:03:18;;;;;;;7.87;3.72;;;;;;;2.52;71.93;98354.72;1689997;84;21315;-61
2021/01/26 06:06:07;;;;;;;7.70;4.05;;;;;;;2.54;71.58;98372.09;1703693;84;21204;-60
2021/01/26 06:08:53;;;;;;;6.10;3.85;;;;;;;2.55;71.04;98361.09;1703676;83;21193;-61
2021/01/26 06:11:29;;;;;;;8.25;3.92;;;;;;;2.56;70.67;98368.68;1703732;84;21095;-60
2021/01/26 06:14:14;;;;;;;6.65;3.60;;;;;;;2.56;70.49;98382.19;1703648;83;21344;-61
2021/01/26 06:16:42;;;;;;;7.40;4.08;;;;;;;2.57;70.19;98387.08;1703676;84;21338;-60
2021/01/26 06:19:14;;;;;;;6.78;3.30;;;;;;;2.59;70.35;98384.50;1703667;84;21318;-61
2021/01/26 06:21:52;;;;;;;7.33;4.15;;;;;;;2.60;70.39;98399.73;1684155;84;21371;-61
2021/01/26 06:24:26;;;;;;;7.15;3.60;;;;;;;2.61;70.31;98393.28;1703630;84;21791;-61
2021/01/26 06:27:20;;;;;;;6.47;3.65;;;;;;;2.63;70.18;98398.50;1703559;83;21342;-61
2021/01/26 06:30:27;;;;;;;6.47;4.03;;;;;;;2.62;69.88;98404.42;1703400;84;21294;-60
2021/01/26 06:33:30;;;;;;;6.87;3.20;;;;;;;2.64;70.17;98402.88;1703673;84;21828;-60
2021/01/26 06:36:33;;;;;;;6.15;3.20;;;;;;;2.64;70.05;98406.92;1703740;84;21357;-60
2021/01/26 06:39:31;;;;;;;7.12;4.08;;;;;;;2.65;69.92;98418.89;1703679;84;21067;-61
2021/01/26 06:42:19;;;;;;;6.73;3.87;;;;;;;2.65;69.97;98430.22;1703935;84;21135;-62
2021/01/26 06:45:15;;;;;;;7.08;3.80;;;;;;;2.66;70.18;98440.01;1644550;84;21311;-61
2021/01/26 06:48:03;;;;;;;6.55;3.83;;;;;;;2.67;70.19;98445.73;1703724;83;21319;-60
2021/01/26 06:51:07;;;;;;;6.92;3.77;;;;;;;2.68;69.91;98449.59;1703710;83;21103;-60
2021/01/26 06:54:03;;;;;;;6.55;3.60;;;;;;;2.70;69.89;98458.34;1703727;84;21321;-60
2021/01/26 06:57:15;;;;;;;5.37;3.10;;;;;;;2.70;69.90;98466.45;1703579;84;21047;-60
2021/01/26 07:00:01;;;;;;;6.95;3.62;;;;;;;2.70;70.13;98486.73;1703750;84;21314;-62
2021/01/26 07:02:59;;;;;;;8.35;3.87;;;;;;;2.72;70.07;98496.00;1703734;83;21110;-61
2021/01/26 07:06:09;;;;;;;7.08;4.10;;;;;;;2.71;69.97;98495.17;1703476;84;21064;-61
2021/01/26 07:09:22;;;;;;;6.80;3.58;;;;;;;2.72;69.81;98494.66;1703662;84;21870;-60
2021/01/26 07:12:21;;;;;;;9.30;3.67;;;;;;;2.68;70.05;98500.96;1703791;84;21047;-61
2021/01/26 07:15:23;;;;;;;7.17;3.12;;;;;;;2.70;70.13;98522.39;1703715;84;21301;-60
2021/01/26 07:18:33;;;;;;;6.33;3.55;;;;;;;2.71;70.18;98508.69;1703713;83;21043;-60
2021/01/26 07:21:38;;;;;;;6.42;3.77;;;;;;;2.71;70.17;98505.98;1703691;84;21310;-60
2021/01/26 07:24:40;;;;;;;6.28;3.47;;;;;;;2.74;70.21;98523.17;1703711;84;21422;-61
2021/01/26 07:27:22;;;;;;;7.70;4.58;;;;;;;2.73;70.44;98526.06;1703667;84;21071;-63
2021/01/26 07:30:01;;;;;;;7.03;4.08;;;;;;;2.71;70.41;98516.80;1703782;83;21187;-61
2021/01/26 07:32:53;;;;;;;8.38;5.12;;;;;;;2.71;69.96;98532.18;1703771;84;21051;-60
2021/01/26 07:35:47;;;;;;;7.53;4.78;;;;;;;2.71;69.46;98527.61;1703777;83;21086;-62
2021/01/26 07:38:32;;;;;;;7.53;4.05;;;;;;;2.71;69.50;98555.16;1628245;84;21087;-59
2021/01/26 07:41:29;;;;;;;6.12;3.27;;;;;;;2.70;69.43;98528.64;1703746;84;21285;-61
2021/01/26 07:44:11;;;;;;;4.92;3.10;;;;;;;2.72;69.46;98536.56;1703832;84;21770;-61
2021/01/26 07:46:47;;;;;;;5.25;3.20;;;;;;;2.76;69.25;98548.14;1703729;84;21630;-61
2021/01/26 07:49:39;;;;;;;5.65;3.15;;;;;;;2.78;69.04;98555.55;1703639;83;21329;-62
2021/01/26 07:52:07;;;;;;;5.60;3.10;;;;;;;2.78;68.91;98554.20;1703648;84;21158;-62
2021/01/26 07:54:46;;;;;;;6.17;3.15;;;;;;;2.79;68.91;98555.88;1703568;84;21149;-61
2021/01/26 07:57:15;;;;;;;5.58;2.77;;;;;;;2.83;68.87;98559.03;1703576;84;21838;-61
2021/01/26 07:59:45;;;;;;;5.55;2.55;;;;;;;2.84;68.92;98558.83;1703666;84;21820;-61
2021/01/26 08:02:25;;;;;;;4.15;2.75;;;;;;;2.86;68.56;98580.28;1703201;84;21043;-62
2021/01/26 08:04:53;;;;;;;4.95;2.75;;;;;;;2.86;68.55;98581.11;1703838;84;21250;-62
2021/01/26 08:07:29;;;;;;;5.12;2.70;;;;;;;2.90;68.51;98576.67;1703649;84;21316;-60
2021/01/26 08:09:59;;;;;;;5.33;2.83;;;;;;;2.91;68.46;98590.00;1703764;83;21423;-63
2021/01/26 08:12:36;;;;;;;5.17;2.77;;;;;;;2.88;67.90;98586.33;1703555;83;21317;-60
2021/01/26 08:15:28;;;;;;;3.72;2.10;;;;;;;2.87;68.24;98604.94;1703614;84;21337;-64
2021/01/26 08:17:56;;;;;;;4.72;2.50;;;;;;;2.88;68.28;98599.02;1703696;83;21460;-62
2021/01/26 08:20:28;;;;;;;4.85;2.30;;;;;;;2.86;68.10;98594.63;1683634;84;21426;-60
2021/01/26 08:23:05;;;;;;;6.00;2.83;;;;;;;2.87;67.88;98603.59;1703791;84;21343;-61
2021/01/26 08:25:35;;;;;;;4.37;2.30;;;;;;;2.86;68.14;98621.68;1703754;84;21114;-60
2021/01/26 08:28:10;;;;;;;4.37;2.80;;;;;;;2.86;67.80;98614.92;1703755;84;21326;-62
2021/01/26 08:30:49;;;;;;;7.85;3.55;;;;;;;2.89;68.04;98626.38;1701552;84;21191;-62
2021/01/26 08:33:23;;;;;;;4.83;2.80;;;;;;;2.91;67.80;98629.73;1702091;84;21310;-62
2021/01/26 08:36:21;;;;;;;4.90;3.00;;;;;;;2.90;67.51;98645.13;1703459;83;21426;-62
2021/01/26 08:38:58;;;;;;;3.77;2.25;;;;;;;2.87;67.47;98642.80;1703251;84;21274;-62
2021/01/26 08:41:40;;;;;;;4.00;2.33;;;;;;;2.86;67.80;98651.43;1703394;83;21313;-63
2021/01/26 08:44:24;;;;;;;4.62;2.60;;;;;;;2.90;67.59;98645.63;1703645;84;21027;-63
2021/01/26 08:46:53;;;;;;;5.15;2.22;;;;;;;2.90;67.27;98652.40;1703620;84;21071;-63
2021/01/26 08:49:33;;;;;;;3.70;2.20;;;;;;;2.92;67.12;98657.94;1703664;84;21366;-62
2021/01/26 08:52:27;;;;;;;6.12;3.27;;;;;;;2.92;66.66;98662.52;1703700;84;21231;-61
2021/01/26 08:54:55;;;;;;;4.45;2.20;;;;;;;2.91;66.93;98657.62;1703662;84;21296;-61
2021/01/26 08:57:34;;;;;;;3.47;1.95;;;;;;;2.90;66.91;98671.33;1703577;84;21342;-63
2021/01/26 09:00:28;;;;;;;3.17;2.00;;;;;;;2.91;66.86;98693.29;1701596;82;21280;-62
2021/01/26 09:02:56;;;;;;;4.05;2.10;;;;;;;2.89;66.29;98662.89;1703674;83;21309;-61
2021/01/26 09:05:47;;;;;;;6.03;1.80;;;;;;;2.88;66.36;98673.39;1703445;83;21185;-62
2021/01/26 09:08:36;;;;;;;3.83;1.92;;;;;;;2.88;66.08;98695.02;1690816;84;21808;-63
2021/01/26 09:11:03;;;;;;;4.25;2.42;;;;;;;2.90;65.77;98692.97;1703539;84;21321;-62
2021/01/26 09:13:32;;;;;;;4.00;2.20;;;;;;;2.92;65.71;98693.61;1703667;84;21407;-59
2021/01/26 09:16:23;;;;;;;3.35;2.40;;;;;;;2.93;65.75;98700.70;1683542;84;21303;-62
2021/01/26 09:18:59;;;;;;;3.80;2.40;;;;;;;2.94;65.93;98711.33;1703778;84;21579;-61
2021/01/26 09:21:32;;;;;;;4.10;2.90;;;;;;;2.96;65.51;98722.80;1703784;84;21311;-62
2021/01/26 09:24:01;;;;;;;4.37;3.02;;;;;;;2.94;65.22;98727.56;1683704;84;21301;-60
2021/01/26 09:26:29;;;;;;;7.22;3.22;;;;;;;2.93;65.21;98726.40;1703703;84;21428;-61
2021/01/26 09:28:57;;;;;;;15.38;7.03;;;;;;;2.92;65.43;98736.37;1703303;84;21293;-61
2021/01/26 09:31:26;;;;;;;10.15;5.30;;;;;;;2.94;65.53;98733.48;1703701;84;21373;-60
2021/01/26 09:34:03;;;;;;;21.42;10.05;;;;;;;2.95;65.88;98752.23;1703709;84;21301;-62
2021/01/26 09:36:33;;;;;;;5.67;3.47;;;;;;;2.96;65.68;98754.42;1703988;84;21334;-62
2021/01/26 09:39:08;;;;;;;7.95;4.62;;;;;;;2.94;65.10;98741.59;1706260;83;21771;-61
2021/01/26 09:41:36;;;;;;;6.47;3.67;;;;;;;2.94;65.40;98744.30;1706211;83;21412;-60
2021/01/26 09:44:09;;;;;;;5.72;3.20;;;;;;;2.94;65.38;98752.42;1706394;84;21400;-63
2021/01/26 09:46:51;;;;;;;2.95;2.10;;;;;;;2.94;65.44;98748.36;1687463;84;21059;-61
2021/01/26 09:49:25;;;;;;;5.72;2.15;;;;;;;2.91;65.60;98747.39;1672324;85;21342;-62
2021/01/26 09:52:09;;;;;;;4.65;2.37;;;;;;;2.92;65.60;98765.30;1673432;85;21103;-62
2021/01/26 09:54:39;;;;;;;4.22;2.47;;;;;;;2.94;65.83;98761.89;1673227;85;21377;-62
2021/01/26 09:57:09;;;;;;;4.22;2.52;;;;;;;2.93;65.84;98758.34;1673253;85;21924;-63
2021/01/26 09:59:36;;;;;;;5.28;3.00;;;;;;;2.95;65.93;98768.45;1673019;85;21444;-63
2021/01/26 10:02:06;;;;;;;5.90;3.42;;;;;;;2.95;65.78;98774.37;1673338;85;21311;-62
2021/01/26 10:04:35;;;;;;;6.58;3.33;;;;;;;2.95;65.66;98767.63;1656335;85;21151;-60
2021/01/26 10:07:07;;;;;;;4.42;2.95;;;;;;;2.94;65.83;98770.00;1676650;83;21111;-62
2021/01/26 10:09:36;;;;;;;5.60;3.55;;;;;;;2.95;66.08;98783.34;1708051;84;21066;-62
2021/01/26 10:12:39;;;;;;;5.50;3.08;;;;;;;2.95;65.98;98798.73;1708061;84;21079;-62
2021/01/26 10:15:27;;;;;;;4.53;2.60;;;;;;;2.94;65.97;98778.95;1708055;83;21455;-60
2021/01/26 10:18:26;;;;;;;3.72;1.98;;;;;;;2.92;65.84;98778.30;1708381;84;21051;-61
2021/01/26 10:21:10;;;;;;;6.30;2.20;;;;;;;2.90;65.87;98796.59;1708063;83;21350;-62
2021/01/26 10:23:41;;;;;;;3.65;2.20;;;;;;;2.90;66.05;98783.58;1708271;83;21080;-62
2021/01/26 10:26:24;;;;;;;4.78;2.40;;;;;;;2.92;66.17;98790.99;1708326;83;21121;-62
2021/01/26 10:29:13;;;;;;;6.00;3.05;;;;;;;2.94;66.19;98802.46;1708463;83;21046;-60
2021/01/26 10:31:54;;;;;;;3.37;2.08;;;;;;;2.94;66.18;98805.16;1708316;84;21211;-62
2021/01/26 10:34:34;;;;;;;4.37;2.50;;;;;;;2.94;66.16;98803.30;1708347;84;21103;-62
2021/01/26 10:37:25;;;;;;;9.58;3.40;;;;;;;2.97;66.15;98800.73;1689026;84;21796;-61
2021/01/26 10:40:21;;;;;;;6.67;4.10;;;;;;;2.98;66.26;98809.17;1702026;84;21828;-63
2021/01/26 10:43:06;;;;;;;7.37;4.40;;;;;;;2.96;65.83;98815.28;1695913;84;21303;-61
2021/01/26 10:45:50;;;;;;;5.37;3.75;;;;;;;2.93;65.98;98823.26;1686837;84;21249;-61
2021/01/26 10:48:25;;;;;;;11.08;5.58;;;;;;;2.92;65.86;98839.16;1702463;84;21421;-62
2021/01/26 10:50:54;;;;;;;11.70;5.90;;;;;;;2.92;65.96;98835.62;1686813;84;21486;-62
2021/01/26 10:53:47;;;;;;;10.78;6.53;;;;;;;2.95;66.08;98838.79;1690841;83;21084;-61
2021/01/26 10:56:15;;;;;;;10.05;5.00;;;;;;;2.98;65.77;98856.00;1700660;84;21839;-58
2021/01/26 10:58:44;;;;;;;6.62;4.53;;;;;;;3.00;65.83;98839.58;1691017;83;21202;-60
2021/01/26 11:01:13;;;;;;;5.60;3.60;;;;;;;3.01;65.69;98844.80;1703087;84;21872;-59
2021/01/26 11:03:42;;;;;;;4.65;2.77;;;;;;;3.03;65.66;98844.61;1702988;84;21118;-59
2021/01/26 11:06:10;;;;;;;4.97;2.98;;;;;;;3.01;65.19;98846.67;1697942;83;20999;-63
2021/01/26 11:08:37;;;;;;;8.23;4.53;;;;;;;2.98;65.43;98845.69;1690792;83;21282;-61
2021/01/26 11:11:05;;;;;;;6.60;4.03;;;;;;;3.00;65.53;98855.30;1696415;84;21049;-60
2021/01/26 11:13:33;;;;;;;6.60;3.92;;;;;;;3.02;65.62;98850.54;1691194;84;21024;-61
2021/01/26 11:16:01;;;;;;;14.30;8.18;;;;;;;3.07;65.27;98859.45;1698937;84;21043;-62
2021/01/26 11:18:28;;;;;;;7.75;5.33;;;;;;;3.08;65.34;98873.30;1691065;83;21293;-62
2021/01/26 11:20:59;;;;;;;6.22;3.40;;;;;;;3.09;64.97;98860.09;1679645;84;21048;-59
2021/01/26 11:23:27;;;;;;;6.85;2.77;;;;;;;3.09;64.98;98874.98;1687988;84;21282;-61
2021/01/26 11:25:55;;;;;;;6.12;3.27;;;;;;;3.10;64.87;98867.19;1683441;85;21125;-60
2021/01/26 11:28:23;;;;;;;3.17;2.25;;;;;;;3.11;65.19;98872.41;1698196;84;21351;-61
2021/01/26 11:30:50;;;;;;;6.90;2.60;;;;;;;3.14;64.96;98883.38;1690341;84;21877;-61
2021/01/26 11:33:18;;;;;;;7.85;2.80;;;;;;;3.16;64.84;98883.51;1701621;84;21206;-61
2021/01/26 11:35:45;;;;;;;4.05;2.40;;;;;;;3.18;64.67;98896.34;1690257;84;21124;-62
2021/01/26 11:38:13;;;;;;;2.65;1.52;;;;;;;3.17;64.43;98900.59;1711837;82;21904;-61
2021/01/26 11:40:40;;;;;;;4.37;2.27;;;;;;;3.16;64.25;98890.79;1711887;82;21404;-62
2021/01/26 11:43:10;;;;;;;4.35;1.80;;;;;;;3.15;64.33;98906.70;1672027;84;21175;-61
2021/01/26 11:45:38;;;;;;;3.12;2.08;;;;;;;3.17;64.34;98890.60;1673472;84;21326;-62
2021/01/26 11:48:07;;;;;;;3.90;1.90;;;;;;;3.16;63.78;98911.92;1671691;85;21365;-61
2021/01/26 11:50:36;;;;;;;3.40;2.25;;;;;;;3.17;64.18;98913.61;1656325;85;21766;-60
2021/01/26 11:53:07;;;;;;;3.83;2.27;;;;;;;3.18;63.86;98913.09;1674863;85;21345;-59
2021/01/26 11:55:35;;;;;;;5.97;3.27;;;;;;;3.18;63.70;98899.56;1673842;84;21099;-60
2021/01/26 11:58:03;;;;;;;7.25;3.85;;;;;;;3.18;63.90;98910.38;1673684;84;21701;-62
2021/01/26 12:00:32;;;;;;;8.55;4.50;;;;;;;3.21;63.60;98919.48;1671593;85;21216;-63
2021/01/26 12:03:00;;;;;;;10.88;7.70;;;;;;;3.21;63.76;98927.60;1673591;84;21297;-62
2021/01/26 12:05:31;;;;;;;18.42;11.20;;;;;;;3.23;63.97;98913.38;1673984;85;21387;-62
2021/01/26 12:08:00;;;;;;;12.78;8.28;;;;;;;3.26;63.21;98920.30;1674120;84;21052;-63
2021/01/26 12:10:27;;;;;;;9.75;5.28;;;;;;;3.26;63.52;98939.25;1673901;84;21374;-61
2021/01/26 12:12:56;;;;;;;7.45;4.95;;;;;;;3.26;63.04;98921.66;1673770;85;21276;-60
2021/01/26 12:15:26;;;;;;;5.22;3.30;;;;;;;3.23;63.02;98922.00;1671346;85;21087;-61
2021/01/26 12:17:54;;;;;;;5.92;3.33;;;;;;;3.20;62.91;98927.27;1671888;85;21360;-61
2021/01/26 12:20:21;;;;;;;4.92;2.55;;;;;;;3.19;63.34;98941.83;1673471;85;21087;-61
2021/01/26 12:22:49;;;;;;;5.80;2.80;;;;;;;3.19;63.46;98945.89;1673588;85;21335;-61
2021/01/26 12:25:17;;;;;;;4.40;2.47;;;;;;;3.23;63.69;98945.84;1673402;85;21162;-60
2021/01/26 12:27:45;;;;;;;4.50;2.50;;;;;;;3.26;63.35;98967.67;1673533;85;21082;-61
2021/01/26 12:30:14;;;;;;;4.45;2.70;;;;;;;3.26;63.46;98954.98;1673280;85;21096;-61